Time;durP1;ratioP1;P1;durP2;ratioP2;P2;SDS_P1;SDS_P2;PMS_P1;PMS_P2;Temp;Humidity;BMP_temperature;BMP_pressure;BME280_temperature;BME280_humidity;BME280_pressure;Samples;Min_cycle;Max_cycle;Signal;HPM_P1;HPM_P2
2021/11/02 00:01:12;;;;;;;29.80;25.00;;;;;;;17.32;55.29;101025.09;143724;615;47005;-77
2021/11/02 00:03:39;;;;;;;28.65;24.08;;;;;;;17.28;55.76;101033.72;143722;573;47004;-77
2021/11/02 00:06:05;;;;;;;27.25;23.50;;;;;;;17.26;55.98;101024.16;143725;569;47004;-77
2021/11/02 00:08:32;;;;;;;31.87;23.90;;;;;;;17.21;56.33;101029.47;143724;582;46929;-77
2021/11/02 00:10:58;;;;;;;26.65;23.27;;;;;;;17.18;56.05;101027.22;143721;628;48006;-77
2021/11/02 00:13:28;;;;;;;29.95;25.05;;;;;;;17.16;56.13;101032.88;143725;576;46008;-77
2021/11/02 00:15:58;;;;;;;29.23;24.25;;;;;;;17.21;56.01;101015.88;143726;598;46012;-77
2021/11/02 00:18:26;;;;;;;27.83;22.73;;;;;;;17.22;56.14;101020.25;143724;588;47010;-77
2021/11/02 00:20:59;;;;;;;28.10;23.45;;;;;;;17.17;56.34;101012.81;143722;598;47004;-77
2021/11/02 00:23:28;;;;;;;27.50;24.25;;;;;;;17.14;56.07;101005.16;143724;613;46009;-77
2021/11/02 00:25:55;;;;;;;29.73;23.38;;;;;;;17.11;56.31;101001.03;143724;668;47004;-77
2021/11/02 00:28:21;;;;;;;27.95;24.00;;;;;;;17.10;56.29;100995.81;143725;572;47010;-77
2021/11/02 00:30:48;;;;;;;27.73;24.55;;;;;;;17.06;56.79;100997.34;143723;582;47004;-77
2021/11/02 00:33:14;;;;;;;28.25;23.83;;;;;;;17.02;56.90;100993.47;143726;574;46008;-77
2021/11/02 00:35:41;;;;;;;34.28;26.90;;;;;;;17.00;56.79;100976.59;143724;660;47004;-78
2021/11/02 00:38:07;;;;;;;41.92;31.23;;;;;;;16.97;56.66;100969.72;143723;580;47012;-77
2021/11/02 00:40:36;;;;;;;39.05;30.67;;;;;;;16.94;56.63;100959.34;143723;600;47006;-78
2021/11/02 00:43:04;;;;;;;36.63;27.48;;;;;;;16.93;57.20;100960.41;143726;619;46008;-77
2021/11/02 00:45:32;;;;;;;33.92;26.40;;;;;;;16.90;56.88;100960.88;143726;577;47002;-77
2021/11/02 00:48:01;;;;;;;33.45;25.85;;;;;;;16.90;57.03;100950.81;143724;566;47010;-76
2021/11/02 00:50:29;;;;;;;36.47;26.77;;;;;;;16.92;56.78;100967.69;143721;649;47012;-77
2021/11/02 00:52:56;;;;;;;30.92;25.08;;;;;;;16.96;57.15;100963.50;143724;588;46925;-76
2021/11/02 00:55:22;;;;;;;28.67;22.13;;;;;;;16.99;56.96;100958.66;143724;592;47004;-77
2021/11/02 00:57:49;;;;;;;25.48;21.33;;;;;;;17.01;56.53;100953.81;143726;643;46008;-76
2021/11/02 01:00:16;;;;;;;24.60;20.98;;;;;;;17.01;57.02;100953.81;143723;582;47002;-77
2021/11/02 01:02:43;;;;;;;25.17;20.55;;;;;;;16.97;57.42;100931.75;143725;574;46006;-77
2021/11/02 01:05:11;;;;;;;27.48;21.30;;;;;;;16.92;57.19;100926.19;143726;615;47002;-78
2021/11/02 01:07:38;;;;;;;25.12;19.25;;;;;;;16.90;57.38;100922.88;143723;580;47002;-77
2021/11/02 01:10:13;;;;;;;21.02;17.87;;;;;;;16.83;57.42;100907.53;143720;620;47004;-77
2021/11/02 01:12:40;;;;;;;22.23;18.15;;;;;;;16.82;57.44;100900.47;143725;613;46006;-77
2021/11/02 01:15:10;;;;;;;18.77;16.05;;;;;;;16.83;57.23;100893.16;143726;583;47002;-77
2021/11/02 01:17:36;;;;;;;18.10;15.38;;;;;;;16.83;57.19;100910.25;143724;595;46924;-77
2021/11/02 01:20:06;;;;;;;17.98;14.95;;;;;;;16.83;56.89;100925.72;143725;585;46004;-77
2021/11/02 01:22:33;;;;;;;23.23;17.35;;;;;;;16.82;57.07;100929.50;143727;629;46922;-76
2021/11/02 01:24:59;;;;;;;20.73;15.48;;;;;;;16.86;56.92;100924.41;143724;652;47002;-78
2021/11/02 01:27:26;;;;;;;22.80;17.65;;;;;;;16.88;57.15;100925.81;143725;610;46008;-77
2021/11/02 01:29:52;;;;;;;20.17;17.05;;;;;;;16.91;57.00;100919.94;143724;612;47005;-77
2021/11/02 01:32:18;;;;;;;20.33;16.67;;;;;;;16.93;57.59;100917.00;143722;619;47002;-77
2021/11/02 01:34:45;;;;;;;19.02;15.85;;;;;;;16.93;57.73;100911.56;143724;589;47002;-77
2021/11/02 01:37:11;;;;;;;18.60;15.55;;;;;;;16.93;56.81;100901.53;143726;586;46925;-77
2021/11/02 01:39:38;;;;;;;19.30;15.98;;;;;;;16.92;56.89;100888.22;143724;638;47006;-77
2021/11/02 01:42:04;;;;;;;20.55;16.87;;;;;;;16.95;56.94;100880.44;143723;611;47008;-78
2021/11/02 01:44:31;;;;;;;18.67;14.73;;;;;;;16.93;56.84;100881.72;143726;607;47004;-78
2021/11/02 01:46:58;;;;;;;20.10;14.13;;;;;;;16.94;57.15;100888.81;143723;567;47012;-78
2021/11/02 01:49:25;;;;;;;17.35;13.30;;;;;;;16.95;57.39;100898.59;143726;574;47004;-77
2021/11/02 01:51:51;;;;;;;17.15;13.43;;;;;;;16.97;56.88;100889.19;143724;582;46925;-77
2021/11/02 01:54:18;;;;;;;19.37;14.52;;;;;;;17.00;56.60;100895.19;143727;595;46015;-77
2021/11/02 01:56:51;;;;;;;18.27;14.75;;;;;;;17.06;56.41;100894.22;143725;569;46012;-77
2021/11/02 01:59:22;;;;;;;16.75;14.23;;;;;;;17.05;56.88;100890.69;143724;599;47006;-77
2021/11/02 02:02:27;;;;;;;16.50;14.07;;;;;;;17.07;57.08;100887.72;143726;575;46008;-77
2021/11/02 02:05:30;;;;;;;22.75;16.62;;;;;;;17.08;56.70;100882.09;143725;589;47004;-77
2021/11/02 02:08:20;;;;;;;17.60;14.82;;;;;;;17.11;56.65;100869.91;143723;635;47013;-77
2021/11/02 02:11:20;;;;;;;19.25;16.02;;;;;;;17.11;57.19;100865.34;143722;612;47004;-77
2021/11/02 02:14:10;;;;;;;16.35;14.25;;;;;;;17.09;57.00;100847.63;143726;581;46008;-77
2021/11/02 02:16:40;;;;;;;22.23;15.65;;;;;;;17.09;57.43;100851.19;143727;572;47006;-77
2021/11/02 02:19:53;;;;;;;21.02;15.82;;;;;;;17.11;57.13;100843.63;143725;582;46031;-77
2021/11/02 02:23:06;;;;;;;20.60;13.98;;;;;;;17.14;56.91;100842.31;143724;581;46018;-77
2021/11/02 02:26:08;;;;;;;16.70;13.80;;;;;;;17.17;56.40;100832.84;143724;633;46926;-77
2021/11/02 02:28:38;;;;;;;18.10;13.90;;;;;;;17.18;56.73;100826.34;143727;595;47005;-77
2021/11/02 02:31:11;;;;;;;16.77;13.73;;;;;;;17.21;57.07;100821.28;143726;583;46013;-76
2021/11/02 02:33:44;;;;;;;20.20;14.98;;;;;;;17.21;57.36;100821.28;143725;638;47006;-76
2021/11/02 02:36:11;;;;;;;20.15;15.63;;;;;;;17.21;57.62;100815.03;143726;575;46023;-77
2021/11/02 02:38:41;;;;;;;17.50;14.38;;;;;;;17.25;56.90;100830.59;143724;605;47006;-77
2021/11/02 02:41:10;;;;;;;16.62;14.07;;;;;;;17.27;57.33;100827.66;143723;576;47012;-77
2021/11/02 02:43:40;;;;;;;21.62;14.32;;;;;;;17.28;56.89;100821.16;143727;595;47004;-77
2021/11/02 02:46:09;;;;;;;21.02;14.52;;;;;;;17.31;58.35;100822.56;143725;616;47008;-77
2021/11/02 02:48:39;;;;;;;20.52;15.52;;;;;;;17.31;58.01;100828.78;143724;605;47004;-76
2021/11/02 02:51:08;;;;;;;22.87;16.02;;;;;;;17.33;59.38;100832.09;143725;616;46012;-77
2021/11/02 02:53:36;;;;;;;20.95;15.57;;;;;;;17.33;59.08;100831.28;143724;578;47004;-77
2021/11/02 02:56:08;;;;;;;21.15;16.25;;;;;;;17.31;59.56;100831.50;143725;568;46008;-76
2021/11/02 02:58:38;;;;;;;18.37;14.65;;;;;;;17.28;60.25;100837.44;143723;664;47004;-76
2021/11/02 03:01:10;;;;;;;18.60;14.77;;;;;;;17.28;60.34;100827.41;143724;593;47012;-77
2021/11/02 03:03:47;;;;;;;16.35;14.65;;;;;;;17.30;59.74;100823.63;143723;627;47006;-76
2021/11/02 03:06:18;;;;;;;19.80;14.10;;;;;;;17.30;61.11;100834.47;143724;590;47008;-77
2021/11/02 03:08:45;;;;;;;18.02;15.07;;;;;;;17.31;60.80;100834.22;143723;567;47004;-77
2021/11/02 03:11:14;;;;;;;18.98;15.30;;;;;;;17.32;61.42;100835.06;143723;593;47012;-77
2021/11/02 03:13:47;;;;;;;22.92;15.88;;;;;;;17.31;61.14;100836.13;143724;645;47005;-77
2021/11/02 03:16:32;;;;;;;20.88;18.62;;;;;;;17.30;61.81;100838.00;143722;572;47008;-77
2021/11/02 03:56:06;;;;;;;17.25;11.82;;;;;;;17.56;62.83;100795.06;143727;579;46010;-77
2021/11/02 04:01:53;;;;;;;14.05;12.07;;;;;;;17.57;62.90;100788.56;143724;582;47006;-77
2021/11/02 04:24:31;;;;;;;17.98;14.75;;;;;;;17.58;62.98;100747.56;143731;634;45924;-77
2021/11/02 04:27:28;;;;;;;19.42;15.77;;;;;;;17.60;63.71;100750.06;143732;628;46008;-76
2021/11/02 04:46:54;;;;;;;17.95;16.05;;;;;;;17.56;63.63;100721.75;143727;572;46008;-77
2021/11/02 05:09:01;;;;;;;30.90;22.20;;;;;;;17.56;63.61;100708.97;143726;570;47006;-76
2021/11/02 05:50:55;;;;;;;17.77;10.68;;;;;;;18.46;56.93;100650.25;143726;673;47007;-77
2021/11/02 05:53:51;;;;;;;16.98;10.73;;;;;;;18.45;57.22;100641.25;143724;567;47006;-77
2021/11/02 06:02:15;;;;;;;15.63;10.80;;;;;;;18.42;57.21;100652.66;143733;572;46010;-76
2021/11/02 06:30:09;;;;;;;13.15;9.27;;;;;;;18.79;56.12;100619.38;143735;577;47004;-73
2021/11/02 06:32:39;;;;;;;11.73;8.85;;;;;;;18.87;55.80;100612.63;143731;593;47012;-79
2021/11/02 06:35:21;;;;;;;19.25;9.63;;;;;;;18.95;56.13;100633.16;143732;586;47006;-74
2021/11/02 07:00:03;;;;;;;9.75;8.75;;;;;;;19.14;57.30;100622.69;143733;603;46010;-78
2021/11/02 07:20:26;;;;;;;11.60;9.80;;;;;;;19.55;56.13;100616.75;143728;614;47006;-82
2021/11/02 07:23:07;;;;;;;11.43;9.55;;;;;;;19.59;56.15;100631.50;143730;597;47006;-82
2021/11/02 07:25:43;;;;;;;13.45;9.75;;;;;;;19.59;56.26;100619.81;143727;569;47008;-81
2021/11/02 07:28:28;;;;;;;13.50;10.05;;;;;;;19.59;56.80;100604.25;143735;582;47006;-81
2021/11/02 08:48:09;;;;;;;;;;;;;;;23.22;49.45;100515.37;143741;984;45576;-73
2021/11/02 08:50:41;;;;;;;11.25;9.00;;;;;;;23.20;49.86;100505.78;143736;983;47012;-71
2021/11/02 08:53:11;;;;;;;11.18;8.63;;;;;;;23.47;49.09;100506.06;143730;577;47006;-69
2021/11/02 08:55:37;;;;;;;10.60;8.73;;;;;;;23.59;48.88;100502.13;143732;567;46012;-70
2021/11/02 08:58:04;;;;;;;10.75;8.43;;;;;;;23.77;48.51;100500.53;143733;973;47006;-69
2021/11/02 09:00:32;;;;;;;10.63;7.72;;;;;;;23.86;48.16;100501.50;143732;572;46012;-70
2021/11/02 09:03:32;;;;;;;10.85;8.05;;;;;;;23.89;48.09;100509.16;143731;567;47006;-69
2021/11/02 09:06:08;;;;;;;10.48;8.20;;;;;;;24.38;47.33;100509.88;143733;591;46008;-70
2021/11/02 09:09:00;;;;;;;9.13;7.12;;;;;;;26.45;42.14;100508.81;143735;576;46006;-70
2021/11/02 09:11:28;;;;;;;11.98;7.43;;;;;;;30.41;34.67;100506.16;143731;928;46013;-69
2021/11/02 09:13:56;;;;;;;11.10;7.53;;;;;;;32.61;30.43;100506.97;143729;577;47004;-69
2021/11/02 09:16:24;;;;;;;14.35;7.53;;;;;;;32.84;29.68;100505.59;143733;873;46008;-68
2021/11/02 09:18:52;;;;;;;10.75;6.53;;;;;;;33.73;28.81;100514.59;143733;567;47006;-70
2021/11/02 09:21:21;;;;;;;7.72;7.00;;;;;;;31.28;31.94;100501.72;143729;567;47012;-69
2021/11/02 09:23:49;;;;;;;9.20;7.25;;;;;;;31.10;32.77;100497.50;143732;593;47006;-70
2021/11/02 09:26:17;;;;;;;11.30;8.80;;;;;;;30.87;33.44;100495.16;143732;582;47002;-69
2021/11/02 09:28:44;;;;;;;9.52;8.10;;;;;;;30.52;33.62;100493.50;143734;591;47004;-70
2021/11/02 09:31:13;;;;;;;9.30;7.70;;;;;;;30.91;32.84;100486.94;143733;579;46012;-68
2021/11/02 09:33:39;;;;;;;14.93;7.72;;;;;;;32.71;29.90;100496.50;143731;602;47006;-70
2021/11/02 09:36:07;;;;;;;9.77;7.32;;;;;;;33.79;28.30;100490.88;143729;583;47002;-70
2021/11/02 09:38:48;;;;;;;10.93;6.25;;;;;;;34.75;26.98;100487.69;143733;582;47004;-69
2021/11/02 09:41:54;;;;;;;8.77;7.00;;;;;;;33.85;28.09;100494.97;143733;590;46011;-71
2021/11/02 09:45:18;;;;;;;11.02;6.72;;;;;;;32.50;30.47;100495.53;143731;742;47006;-70
2021/11/02 09:48:33;;;;;;;12.45;6.40;;;;;;;32.85;30.17;100490.53;143731;609;46009;-71
2021/11/02 09:51:40;;;;;;;6.70;6.03;;;;;;;31.14;33.12;100487.38;143734;567;47006;-70
2021/11/02 09:54:45;;;;;;;9.05;6.57;;;;;;;31.50;32.44;100484.97;143732;584;46012;-72
2021/11/02 09:57:56;;;;;;;8.35;7.25;;;;;;;29.16;37.10;100481.47;143732;580;47006;-71
2021/11/02 10:00:55;;;;;;;10.10;7.22;;;;;;;29.57;36.49;100463.38;143732;706;46018;-71
2021/11/02 10:04:06;;;;;;;8.77;6.35;;;;;;;31.49;32.39;100464.72;143733;574;47002;-73
2021/11/02 10:07:10;;;;;;;7.47;6.65;;;;;;;30.09;35.14;100461.44;143728;589;47012;-73
2021/11/02 10:09:49;;;;;;;8.93;7.37;;;;;;;30.08;35.12;100468.13;143729;660;47006;-79
2021/11/02 10:12:38;;;;;;;6.78;6.03;;;;;;;27.77;38.76;100472.88;143729;583;47008;-79
2021/11/02 10:15:46;;;;;;;11.18;6.80;;;;;;;26.33;42.88;100478.25;143731;592;47015;-79
2021/11/02 10:18:57;;;;;;;7.28;6.18;;;;;;;25.28;45.14;100473.25;143729;589;47011;-74
2021/11/02 10:21:54;;;;;;;11.25;7.47;;;;;;;25.00;46.49;100477.87;143730;590;47004;-68
2021/11/02 10:25:10;;;;;;;12.50;8.18;;;;;;;24.87;46.63;100489.66;143729;617;46008;-68
2021/11/02 10:28:14;;;;;;;12.82;9.32;;;;;;;24.72;46.98;100486.06;143731;601;47004;-68
2021/11/02 10:31:10;;;;;;;8.63;6.43;;;;;;;25.58;45.73;100481.22;143731;663;46006;-68
2021/11/02 10:33:42;;;;;;;8.10;6.35;;;;;;;28.29;39.60;100489.53;143728;642;47007;-68
2021/11/02 10:36:41;;;;;;;9.07;6.72;;;;;;;31.55;32.99;100484.72;143729;569;46008;-68
2021/11/02 10:39:41;;;;;;;8.70;6.35;;;;;;;31.98;32.03;100476.94;143732;619;47006;-69
2021/11/02 10:42:35;;;;;;;8.23;6.15;;;;;;;31.53;33.26;100475.91;143731;619;46012;-69
2021/11/02 10:45:02;;;;;;;6.85;6.15;;;;;;;30.55;34.64;100490.09;143728;592;47006;-68
2021/11/02 10:47:59;;;;;;;8.65;6.60;;;;;;;29.49;36.57;100480.84;143730;663;46026;-69
2021/11/02 10:50:29;;;;;;;9.27;6.57;;;;;;;29.20;36.96;100477.69;143733;667;47004;-69
2021/11/02 10:53:03;;;;;;;7.35;6.65;;;;;;;29.02;37.56;100481.66;143730;652;46012;-70
2021/11/02 10:56:01;;;;;;;8.77;5.95;;;;;;;28.50;38.42;100486.12;143727;615;47006;-69
2021/11/02 10:58:35;;;;;;;12.32;8.50;;;;;;;27.83;40.47;100490.94;143728;597;47008;-69
2021/11/02 11:01:02;;;;;;;;;;;;;;;26.86;41.94;100484.16;143736;985;47004;-78
2021/11/02 11:03:31;;;;;;;10.73;8.98;;;;;;;26.40;42.94;100497.91;143730;598;47013;-78
2021/11/02 11:06:02;;;;;;;14.40;8.05;;;;;;;26.06;43.60;100495.63;143729;738;47006;-76
2021/11/02 11:08:32;;;;;;;9.30;7.55;;;;;;;26.07;43.92;100500.84;143731;590;47008;-78
2021/11/02 11:11:00;;;;;;;8.13;6.62;;;;;;;26.06;44.48;100504.72;143730;596;47004;-76
2021/11/02 11:13:29;;;;;;;9.77;7.20;;;;;;;25.99;44.33;100493.31;143730;656;46012;-77
2021/11/02 11:16:26;;;;;;;6.87;6.00;;;;;;;25.59;46.08;100496.59;143729;660;47006;-76
2021/11/02 11:19:13;;;;;;;6.97;6.18;;;;;;;25.45;46.11;100495.81;143733;573;46008;-76
2021/11/02 11:21:43;;;;;;;9.90;6.60;;;;;;;25.22;46.23;100490.12;143732;570;47006;-74
2021/11/02 11:24:26;;;;;;;12.18;7.82;;;;;;;25.13;46.14;100484.53;143732;600;46012;-77
2021/11/02 11:26:54;;;;;;;10.32;7.45;;;;;;;25.01;47.42;100497.94;143729;593;47006;-78
2021/11/02 11:29:22;;;;;;;8.57;6.55;;;;;;;24.77;48.23;100485.16;143727;644;47008;-78
2021/11/02 11:31:54;;;;;;;15.20;7.37;;;;;;;24.83;47.27;100497.69;143731;631;47006;-78
2021/11/02 11:34:32;;;;;;;9.50;8.50;;;;;;;24.79;46.83;100502.97;143732;620;46923;-76
2021/11/02 11:37:01;;;;;;;11.30;9.65;;;;;;;24.56;47.25;100495.63;143731;585;46008;-77
2021/11/02 11:39:30;;;;;;;16.02;12.10;;;;;;;24.42;47.30;100496.41;143729;658;47007;-74
2021/11/02 11:41:58;;;;;;;12.20;10.90;;;;;;;24.48;47.67;100491.63;143723;573;47002;-74
2021/11/02 11:44:26;;;;;;;17.12;13.35;;;;;;;24.51;47.18;100502.03;143725;575;46024;-73
2021/11/02 11:47:09;;;;;;;16.00;13.82;;;;;;;24.36;48.01;100512.09;143729;622;47002;-79
2021/11/02 11:49:44;;;;;;;19.73;14.85;;;;;;;24.28;47.82;100511.94;143724;595;46006;-77
2021/11/02 11:52:10;;;;;;;;;;;;;;;24.19;48.54;100506.31;143730;973;47004;-77
2021/11/02 11:54:46;;;;;;;19.27;13.75;;;;;;;24.12;48.79;100516.84;143736;736;47010;-75
2021/11/02 11:57:37;;;;;;;16.20;13.27;;;;;;;24.07;48.81;100510.31;143723;579;47004;-75
2021/11/02 12:00:10;;;;;;;22.40;14.30;;;;;;;23.89;49.96;100513.81;143724;568;47006;-77
2021/11/02 12:03:12;;;;;;;18.08;15.02;;;;;;;23.94;49.43;100519.25;143725;685;47004;-78
2021/11/02 12:05:49;;;;;;;22.70;17.55;;;;;;;23.95;49.40;100509.06;143727;658;46010;-78
2021/11/02 12:08:36;;;;;;;22.90;16.58;;;;;;;23.78;49.21;100507.63;143723;589;47004;-77
2021/11/02 12:11:04;;;;;;;21.70;17.20;;;;;;;23.91;49.31;100509.69;143726;744;46006;-75
2021/11/02 12:13:38;;;;;;;27.23;17.55;;;;;;;23.93;48.89;100501.16;143729;577;47002;-75
2021/11/02 12:16:22;;;;;;;22.33;16.30;;;;;;;23.88;48.90;100512.19;143725;569;46008;-76
2021/11/02 12:19:01;;;;;;;21.65;16.08;;;;;;;23.86;49.57;100512.50;143722;740;47006;-77
2021/11/02 12:21:30;;;;;;;19.00;14.70;;;;;;;23.79;49.57;100519.44;143725;573;47002;-76
2021/11/02 12:24:02;;;;;;;20.75;16.05;;;;;;;23.79;49.54;100512.00;143726;639;47002;-77
2021/11/02 12:26:49;;;;;;;22.10;15.23;;;;;;;23.75;50.03;100525.50;143724;686;47010;-76
2021/11/02 12:29:23;;;;;;;16.73;14.93;;;;;;;23.71;49.54;100512.69;143723;591;47006;-77
2021/11/02 12:32:15;;;;;;;;;;;;;;;23.69;49.54;100514.87;143729;986;47008;-75
2021/11/02 12:34:55;;;;;;;19.95;14.77;;;;;;;23.56;49.78;100508.97;143740;582;47002;-76
2021/11/02 12:37:22;;;;;;;14.95;13.35;;;;;;;23.63;50.08;100514.13;143724;602;47010;-76
2021/11/02 12:39:50;;;;;;;19.25;13.60;;;;;;;23.48;50.12;100498.66;143722;581;47006;-74
2021/11/02 12:42:25;;;;;;;17.05;14.73;;;;;;;23.34;50.46;100509.50;143724;602;47002;-75
2021/11/02 12:44:53;;;;;;;17.58;15.20;;;;;;;23.24;50.77;100510.41;143724;615;47006;-75
2021/11/02 12:47:25;;;;;;;19.77;14.50;;;;;;;23.14;50.56;100494.06;143727;642;46026;-74
2021/11/02 12:49:57;;;;;;;17.33;14.73;;;;;;;23.07;50.88;100497.16;143723;573;47006;-75
2021/11/02 12:52:30;;;;;;;17.83;14.68;;;;;;;23.10;50.98;100498.47;143726;730;46008;-74
2021/11/02 12:55:11;;;;;;;19.92;15.57;;;;;;;23.07;50.93;100494.41;143724;594;47006;-77
2021/11/02 12:57:53;;;;;;;17.20;14.93;;;;;;;23.06;51.03;100502.91;143723;620;47012;-77
2021/11/02 13:00:26;;;;;;;15.82;13.73;;;;;;;22.95;51.13;100499.44;143722;573;47006;-76
2021/11/02 13:02:58;;;;;;;16.17;13.97;;;;;;;22.89;51.59;100509.62;143726;573;46009;-74
2021/11/02 13:05:28;;;;;;;16.05;13.50;;;;;;;22.87;51.42;100509.06;143725;589;47010;-74
2021/11/02 13:08:12;;;;;;;21.05;13.48;;;;;;;22.82;51.58;100506.41;143724;583;46012;-74
2021/11/02 13:10:39;;;;;;;22.20;14.48;;;;;;;22.83;52.30;100513.50;143728;755;46017;-73
2021/11/02 13:13:20;;;;;;;16.48;14.75;;;;;;;22.78;51.88;100516.28;143725;592;46008;-74
2021/11/02 13:15:52;;;;;;;18.40;13.73;;;;;;;22.79;51.59;100529.69;143727;567;47004;-75
2021/11/02 13:18:53;;;;;;;16.58;13.88;;;;;;;22.71;52.14;100527.56;143723;648;47010;-74
2021/11/02 13:21:33;;;;;;;17.62;14.32;;;;;;;22.76;51.64;100538.50;143721;640;47006;-75
2021/11/02 13:24:11;;;;;;;16.83;14.30;;;;;;;22.68;52.10;100534.41;143724;581;46008;-73
2021/11/02 13:26:42;;;;;;;16.62;14.48;;;;;;;22.74;52.60;100529.75;143726;573;47006;-73
2021/11/02 13:29:14;;;;;;;18.60;14.85;;;;;;;22.67;51.78;100530.06;143724;580;47012;-72
2021/11/02 13:31:41;;;;;;;20.67;17.58;;;;;;;22.65;51.79;100525.97;143721;593;47006;-75
2021/11/02 13:34:11;;;;;;;25.23;21.50;;;;;;;22.71;51.79;100533.03;143727;570;46008;-75
2021/11/02 13:36:38;;;;;;;33.45;27.40;;;;;;;22.73;51.58;100524.53;143725;581;47004;-73
2021/11/02 13:39:06;;;;;;;32.30;26.70;;;;;;;22.58;51.85;100534.50;143725;596;47011;-72
2021/11/02 13:41:50;;;;;;;24.23;18.67;;;;;;;22.56;52.38;100529.31;143721;618;47006;-73
2021/11/02 13:44:18;;;;;;;29.73;24.48;;;;;;;22.62;51.69;100529.25;143724;579;46008;-72
2021/11/02 13:46:54;;;;;;;51.88;40.55;;;;;;;22.56;52.01;100526.56;143725;586;47004;-74
2021/11/02 13:49:22;;;;;;;32.60;28.77;;;;;;;22.41;52.63;100532.94;143727;650;46887;-73
2021/11/02 13:51:52;;;;;;;23.50;20.75;;;;;;;22.46;51.95;100534.03;143725;585;47004;-73
2021/11/02 13:54:21;;;;;;;22.23;17.02;;;;;;;22.50;51.98;100541.38;143724;649;46008;-73
2021/11/02 13:56:47;;;;;;;35.78;31.75;;;;;;;22.48;52.17;100540.84;143725;641;47006;-73
2021/11/02 13:59:15;;;;;;;26.85;21.12;;;;;;;22.43;52.14;100549.09;143725;573;46012;-72
2021/11/02 14:01:50;;;;;;;35.80;30.37;;;;;;;22.42;52.21;100555.66;143723;595;47006;-73
2021/11/02 14:04:46;;;;;;;30.52;27.02;;;;;;;22.35;52.22;100552.41;143727;609;46008;-75
2021/11/02 14:07:16;;;;;;;24.10;21.17;;;;;;;22.27;52.57;100568.28;143724;588;47004;-74
2021/11/02 14:09:59;;;;;;;20.20;16.98;;;;;;;22.32;52.58;100564.72;143724;573;47011;-73
2021/11/02 14:12:40;;;;;;;22.65;20.12;;;;;;;22.31;52.23;100573.22;143723;591;47006;-74
2021/11/02 14:15:32;;;;;;;20.62;18.42;;;;;;;22.30;52.38;100577.88;143725;575;46008;-73
2021/11/02 14:18:20;;;;;;;20.73;17.40;;;;;;;22.31;52.18;100574.03;143723;582;47004;-73
2021/11/02 14:20:50;;;;;;;25.60;20.00;;;;;;;22.27;51.96;100579.22;143722;577;47012;-74
2021/11/02 14:23:39;;;;;;;21.40;17.17;;;;;;;22.23;51.99;100577.34;143725;612;47006;-74
2021/11/02 14:26:25;;;;;;;20.05;17.02;;;;;;;22.19;52.20;100579.84;143725;598;46008;-74
2021/11/02 14:29:00;;;;;;;21.00;15.70;;;;;;;22.15;52.08;100588.88;143724;603;47004;-74
2021/11/02 14:32:01;;;;;;;22.73;17.12;;;;;;;22.00;52.00;100578.81;143724;573;47011;-73
2021/11/02 14:34:46;;;;;;;21.52;18.15;;;;;;;21.94;52.37;100581.56;143727;583;47004;-73
2021/11/02 14:37:32;;;;;;;21.77;18.62;;;;;;;21.91;52.12;100586.78;143726;579;46008;-67
2021/11/02 14:40:11;;;;;;;20.17;17.87;;;;;;;21.86;52.27;100584.06;143730;601;46007;-68
2021/11/02 14:43:24;;;;;;;21.02;16.52;;;;;;;21.81;52.37;100582.16;143728;573;46010;-67
2021/11/02 14:46:19;;;;;;;18.93;17.03;;;;;;;21.80;52.58;100595.00;143728;585;46004;-74
2021/11/02 14:48:50;;;;;;;17.62;15.68;;;;;;;21.76;52.44;100590.38;143724;573;46008;-75
2021/11/02 14:51:25;;;;;;;18.73;15.93;;;;;;;21.75;52.38;100583.25;143726;758;47006;-75
2021/11/02 14:53:54;;;;;;;20.42;15.55;;;;;;;21.74;52.33;100589.81;143724;573;46028;-75
2021/11/02 14:56:31;;;;;;;18.87;16.85;;;;;;;21.70;52.66;100586.81;143725;597;46010;-75
2021/11/02 14:59:03;;;;;;;29.42;16.95;;;;;;;21.69;52.77;100589.84;143721;590;47004;-74
2021/11/02 15:02:15;;;;;;;18.98;16.98;;;;;;;21.69;52.53;100595.31;143726;587;47006;-74
2021/11/02 15:04:52;;;;;;;19.65;16.17;;;;;;;21.64;52.80;100591.50;143725;569;46032;-73
2021/11/02 15:07:20;;;;;;;21.62;16.95;;;;;;;21.60;53.09;100600.50;143724;618;47004;-74
2021/11/02 15:09:46;;;;;;;20.83;16.83;;;;;;;21.57;52.70;100590.09;143725;568;47008;-73
2021/11/02 15:12:14;;;;;;;25.55;18.05;;;;;;;21.54;52.66;100587.91;143726;558;47006;-73
2021/11/02 15:14:41;;;;;;;27.20;16.45;;;;;;;21.53;52.99;100602.69;143724;979;47012;-74
2021/11/02 15:17:10;;;;;;;22.05;17.55;;;;;;;21.47;52.94;100597.22;143721;713;47006;-74
2021/11/02 15:19:39;;;;;;;22.85;16.58;;;;;;;21.45;53.42;100596.66;143725;584;46008;-74
2021/11/02 15:22:17;;;;;;;21.15;17.40;;;;;;;21.43;53.08;100589.84;143726;574;47006;-73
2021/11/02 15:24:56;;;;;;;30.02;19.15;;;;;;;21.39;53.01;100603.25;143723;681;48013;-74
2021/11/02 15:27:26;;;;;;;19.50;16.33;;;;;;;21.37;53.12;100605.44;143723;581;46006;-74
2021/11/02 15:29:59;;;;;;;30.75;19.77;;;;;;;21.33;53.06;100601.59;143725;623;46009;-74
2021/11/02 15:32:28;;;;;;;31.55;19.80;;;;;;;21.30;53.61;100602.13;143729;985;46008;-76
2021/11/02 15:35:00;;;;;;;27.27;20.62;;;;;;;21.19;53.80;100607.63;143723;627;47010;-70
2021/11/02 15:37:29;;;;;;;24.98;18.12;;;;;;;21.08;54.21;100614.19;143721;952;47004;-68
2021/11/02 15:40:09;;;;;;;27.15;18.60;;;;;;;20.98;54.30;100611.41;143727;573;46006;-69
2021/11/02 15:42:38;;;;;;;28.25;19.45;;;;;;;20.90;54.47;100626.44;143727;572;46015;-67
2021/11/02 15:45:32;;;;;;;23.38;18.87;;;;;;;20.86;55.05;100630.78;143726;600;46010;-66
2021/11/02 15:48:10;;;;;;;23.73;19.33;;;;;;;20.85;54.86;100632.69;143724;746;46004;-66
2021/11/02 15:50:48;;;;;;;24.95;19.83;;;;;;;20.77;55.35;100638.66;143726;822;46924;-67
2021/11/02 15:53:17;;;;;;;22.35;19.20;;;;;;;20.75;55.00;100640.81;143725;710;47002;-68
2021/11/02 15:55:44;;;;;;;26.60;20.48;;;;;;;20.70;55.26;100638.09;143723;715;47010;-68
2021/11/02 15:58:12;;;;;;;21.85;18.58;;;;;;;20.75;55.15;100641.69;143721;862;47004;-68
2021/11/02 16:00:47;;;;;;;26.48;18.77;;;;;;;20.71;55.04;100634.28;143721;777;47004;-68
2021/11/02 16:03:14;;;;;;;24.45;20.00;;;;;;;20.66;55.41;100643.25;143725;663;47002;-69
2021/11/02 16:05:43;;;;;;;26.02;20.00;;;;;;;20.57;55.70;100644.88;143725;614;47008;-68
2021/11/02 16:08:24;;;;;;;23.10;19.67;;;;;;;20.47;55.78;100650.31;143725;602;47005;-69
2021/11/02 16:11:02;;;;;;;22.20;19.08;;;;;;;20.41;56.10;100647.53;143728;602;46006;-68
2021/11/02 16:13:29;;;;;;;22.90;19.83;;;;;;;20.35;56.25;100647.78;143726;973;47004;-68
2021/11/02 16:15:57;;;;;;;35.95;28.73;;;;;;;20.34;56.19;100655.13;143726;579;46011;-68
2021/11/02 16:18:26;;;;;;;34.00;27.13;;;;;;;20.32;56.65;100657.31;143721;632;47895;-68
2021/11/02 16:20:54;;;;;;;28.60;23.90;;;;;;;20.35;56.37;100661.44;143726;985;46925;-69
2021/11/02 16:23:23;;;;;;;22.37;19.33;;;;;;;20.38;55.92;100666.34;143727;984;47005;-68
2021/11/02 16:26:10;;;;;;;27.55;20.42;;;;;;;20.33;56.38;100667.13;143726;982;46010;-68
2021/11/02 16:28:36;;;;;;;22.83;20.10;;;;;;;20.24;56.37;100676.91;143726;980;47002;-69
2021/11/02 16:31:07;;;;;;;23.27;20.88;;;;;;;20.20;56.89;100675.81;143723;672;47006;-68
2021/11/02 16:33:45;;;;;;;30.33;25.62;;;;;;;20.14;56.96;100685.88;143726;985;47002;-69
2021/11/02 16:36:29;;;;;;;26.02;23.00;;;;;;;20.11;57.08;100683.66;143725;577;47008;-69
2021/11/02 16:39:00;;;;;;;36.42;25.52;;;;;;;20.07;57.16;100688.81;143724;870;47002;-67
2021/11/02 16:41:29;;;;;;;30.98;25.25;;;;;;;20.04;56.91;100691.22;143725;973;46006;-67